createdAt,value
2022-08-02T00:10:41.628Z,68.18
2022-08-02T00:21:10.572Z,68.66
2022-08-02T00:31:40.889Z,68.83
2022-08-02T00:42:11.074Z,68.70
2022-08-02T00:52:40.096Z,68.89
2022-08-02T01:03:09.098Z,69.32
2022-08-02T01:13:38.301Z,69.50
2022-08-02T01:24:22.924Z,68.99
2022-08-02T01:34:56.918Z,68.62
2022-08-02T01:45:28.570Z,68.16
2022-08-02T01:55:59.993Z,67.82
2022-08-02T02:06:29.643Z,68.31
2022-08-02T02:16:59.687Z,69.17
2022-08-02T02:27:29.787Z,69.35
2022-08-02T02:38:01.116Z,69.60
2022-08-02T02:48:31.408Z,70.15
2022-08-02T02:59:01.135Z,70.70
2022-08-02T03:09:30.235Z,71.11
2022-08-02T03:19:59.573Z,71.87
2022-08-02T03:30:28.880Z,72.55
2022-08-02T03:40:59.273Z,72.90
2022-08-02T03:51:29.012Z,72.80
2022-08-02T04:01:58.182Z,72.66
2022-08-02T04:12:31.150Z,72.28
2022-08-02T04:23:03.137Z,71.87
2022-08-02T04:33:32.842Z,72.02
2022-08-02T04:44:02.006Z,72.11
2022-08-02T04:54:31.281Z,72.24
2022-08-02T05:05:00.475Z,72.23
2022-08-02T05:15:33.237Z,72.19
2022-08-02T05:26:02.830Z,72.22
2022-08-02T05:36:32.021Z,72.35
2022-08-02T05:47:01.184Z,72.38
2022-08-02T05:57:44.081Z,72.42
2022-08-02T06:08:14.888Z,72.40
2022-08-02T06:18:45.419Z,72.40
2022-08-02T06:29:16.014Z,72.22
2022-08-02T06:39:49.926Z,71.99
2022-08-02T06:50:19.246Z,72.02
2022-08-02T07:00:48.655Z,72.38
2022-08-02T07:11:19.728Z,72.18
2022-08-02T07:21:57.304Z,71.90
2022-08-02T07:32:32.257Z,71.31
2022-08-02T07:43:04.237Z,71.18
2022-08-02T07:53:51.372Z,70.03
2022-08-02T08:04:23.422Z,68.91
2022-08-02T08:14:52.805Z,68.58
2022-08-02T08:25:22.550Z,67.87
2022-08-02T08:35:51.721Z,67.70
2022-08-02T08:46:28.765Z,67.85
2022-08-02T08:56:59.366Z,67.43
2022-08-02T09:07:29.002Z,67.02
2022-08-02T09:17:58.432Z,66.45
2022-08-02T09:28:30.436Z,64.76
2022-08-02T09:39:02.163Z,64.00
2022-08-02T09:49:35.019Z,62.94
2022-08-02T10:00:08.703Z,62.31
2022-08-02T10:10:47.060Z,61.52
2022-08-02T10:21:22.692Z,59.78
2022-08-02T10:31:56.287Z,59.31
2022-08-02T10:42:48.784Z,59.53
2022-08-02T10:53:32.129Z,59.69
2022-08-02T11:04:09.756Z,58.57
2022-08-02T11:14:41.306Z,57.97
2022-08-02T11:26:02.859Z,58.17
2022-08-02T11:36:26.222Z,57.98
2022-08-02T11:47:03.444Z,56.90
2022-08-02T11:58:03.055Z,55.88
2022-08-02T12:08:25.535Z,55.99
2022-08-02T12:19:11.931Z,55.86
2022-08-02T12:29:58.613Z,54.79
2022-08-02T12:40:32.159Z,54.32
2022-08-02T12:51:01.442Z,54.20
2022-08-02T13:01:31.966Z,53.79
2022-08-02T13:12:01.274Z,52.87
2022-08-02T13:22:32.698Z,52.62
2022-08-02T13:33:03.290Z,52.22
2022-08-02T13:43:53.684Z,52.14
2022-08-02T13:54:21.638Z,51.43
2022-08-02T14:04:50.810Z,51.06
2022-08-02T14:15:20.247Z,50.53
2022-08-02T14:25:49.362Z,50.09
2022-08-02T14:36:27.505Z,49.96
2022-08-02T14:46:57.543Z,49.51
2022-08-02T14:57:26.890Z,49.20
2022-08-02T15:07:56.038Z,47.83
2022-08-02T15:18:25.199Z,47.48
2022-08-02T15:28:55.590Z,47.59
2022-08-02T15:39:25.222Z,47.27
2022-08-02T15:49:54.435Z,47.90
2022-08-02T16:00:24.034Z,48.09
2022-08-02T16:10:53.508Z,48.29
2022-08-02T16:21:25.045Z,47.75
2022-08-02T16:31:54.399Z,48.25
2022-08-02T16:42:25.198Z,48.11
2022-08-02T16:52:54.839Z,48.94
2022-08-02T17:03:24.649Z,49.73
2022-08-02T17:14:13.976Z,49.93
2022-08-02T17:24:45.179Z,50.84
2022-08-02T17:35:18.267Z,50.99
2022-08-02T17:46:00.854Z,52.19
2022-08-02T17:56:31.599Z,53.70
2022-08-02T18:07:03.914Z,54.19
2022-08-02T18:17:33.728Z,54.63
2022-08-02T18:28:03.294Z,55.26
2022-08-02T18:38:32.459Z,55.98
2022-08-02T18:49:06.819Z,56.68
2022-08-02T18:59:44.612Z,57.34
2022-08-02T19:10:20.708Z,57.60
2022-08-02T19:20:50.348Z,57.89
2022-08-02T19:31:20.142Z,58.30
2022-08-02T19:41:49.780Z,58.87
2022-08-02T19:52:25.034Z,59.27
2022-08-02T20:02:54.761Z,59.51
2022-08-02T20:13:24.532Z,59.70
2022-08-02T20:23:55.953Z,59.67
2022-08-02T20:34:26.901Z,60.22
2022-08-02T20:44:56.302Z,60.68
2022-08-02T20:55:25.835Z,60.46
2022-08-02T21:05:56.132Z,60.69
2022-08-02T21:16:25.661Z,61.07
2022-08-02T21:26:56.933Z,61.03
2022-08-02T21:37:33.199Z,61.16
2022-08-02T21:48:14.097Z,61.46
2022-08-02T21:58:43.364Z,61.63
2022-08-02T22:09:17.662Z,61.90
2022-08-02T22:20:02.154Z,61.97
2022-08-02T22:30:31.327Z,61.87
2022-08-02T22:41:00.606Z,62.07
2022-08-02T22:51:30.396Z,61.81
2022-08-02T23:02:01.795Z,61.99
2022-08-02T23:12:31.077Z,61.84
2022-08-02T23:23:00.324Z,61.97
2022-08-02T23:33:29.544Z,62.17
2022-08-02T23:44:12.891Z,62.05
2022-08-02T23:54:43.025Z,61.87
